Station History

Weather Underground - logo

Station Historical Data
Daily Summary for December 4, 2017 Units:  English    Metric   Both
« Previous Day
Next Day »
Daily Weekly Monthly Yearly Custom
  High: Low: Average:
Temperature: 56.7 °F 36.9 °F 45.3 °F
Dew Point: 42.6 °F 34.5 °F 38.7 °F
Humidity: 91 % 56 % 79 %
Wind Speed: 5.8 mph 0.0 mph 0.7 mph
Wind Gust: 5.8 mph - -
Wind:- - WSW
Pressure: 30.22 in 30.08 in -
Precipitation: 0.00 in    
Historical Graphs
 
 
Tabular Data for December 4, 2017
Time Temperature Dew Point Pressure Wind Wind Speed Wind Gust Humidity Rainfall Rate (Hourly)
00:03 41.0 °F 37.7 °F 30.15 in Calm     88 % 0.00 in
00:08 40.8 °F 37.2 °F 30.15 in Calm     87 % 0.00 in
00:13 40.7 °F 37.4 °F 30.15 in Calm     88 % 0.00 in
00:18 40.6 °F 37.3 °F 30.15 in Calm     88 % 0.00 in
00:23 40.5 °F 37.2 °F 30.15 in Calm     88 % 0.00 in
00:28 40.3 °F 37.0 °F 30.15 in Calm     88 % 0.00 in
00:33 40.0 °F 36.7 °F 30.15 in Calm     88 % 0.00 in
00:38 40.0 °F 37.0 °F 30.15 in Calm     89 % 0.00 in
00:43 40.1 °F 37.4 °F 30.15 in Calm     90 % 0.00 in
00:48 40.1 °F 37.4 °F 30.15 in Calm     90 % 0.00 in
00:53 40.1 °F 37.4 °F 30.15 in Calm     90 % 0.00 in
00:58 40.1 °F 37.4 °F 30.15 in Calm     90 % 0.00 in
01:03 40.0 °F 37.3 °F 30.15 in Calm     90 % 0.00 in
01:08 39.9 °F 37.2 °F 30.15 in Calm     90 % 0.00 in
01:13 39.7 °F 37.0 °F 30.16 in Calm     90 % 0.00 in
01:18 39.6 °F 36.9 °F 30.16 in Calm     90 % 0.00 in
01:23 39.6 °F 36.9 °F 30.16 in Calm     90 % 0.00 in
01:28 39.5 °F 36.8 °F 30.16 in Calm     90 % 0.00 in
01:33 39.6 °F 36.9 °F 30.16 in Calm     90 % 0.00 in
01:38 39.7 °F 37.0 °F 30.16 in Calm     90 % 0.00 in
01:43 39.7 °F 37.0 °F 30.16 in Calm     90 % 0.00 in
01:48 39.7 °F 37.0 °F 30.16 in Calm     90 % 0.00 in
01:53 39.6 °F 36.9 °F 30.17 in Calm     90 % 0.00 in
01:58 39.5 °F 36.8 °F 30.17 in Calm     90 % 0.00 in
02:03 39.5 °F 36.8 °F 30.17 in Calm     90 % 0.00 in
02:08 39.4 °F 36.7 °F 30.17 in Calm     90 % 0.00 in
02:13 39.5 °F 36.8 °F 30.17 in Calm     90 % 0.00 in
02:19 39.7 °F 37.3 °F 30.17 in Calm     91 % 0.00 in
02:24 39.7 °F 37.0 °F 30.17 in SE 1.2 mph   90 % 0.00 in
02:29 39.8 °F 37.1 °F 30.17 in Calm     90 % 0.00 in
02:34 39.9 °F 37.2 °F 30.17 in Calm     90 % 0.00 in
02:39 40.0 °F 37.6 °F 30.17 in Calm     91 % 0.00 in
02:44 40.0 °F 37.6 °F 30.16 in Calm     91 % 0.00 in
02:49 40.0 °F 37.6 °F 30.16 in SE 1.0 mph   91 % 0.00 in
02:54 40.1 °F 37.4 °F 30.16 in Calm     90 % 0.00 in
02:59 40.3 °F 37.9 °F 30.16 in Calm     91 % 0.00 in
03:04 40.5 °F 38.1 °F 30.16 in Calm     91 % 0.00 in
03:09 40.6 °F 37.9 °F 30.16 in SE 1.2 mph   90 % 0.00 in
03:14 40.8 °F 38.1 °F 30.16 in Calm     90 % 0.00 in
03:19 40.9 °F 38.2 °F 30.16 in Calm     90 % 0.00 in
03:24 40.9 °F 38.2 °F 30.16 in Calm     90 % 0.00 in
03:29 41.0 °F 38.3 °F 30.16 in Calm     90 % 0.00 in
03:34 41.0 °F 38.3 °F 30.15 in Calm     90 % 0.00 in
03:39 40.9 °F 38.2 °F 30.15 in Calm     90 % 0.00 in
03:41 40.9 °F 38.2 °F 30.15 in SE 1.2 mph 1.2 mph 90 % 0.00 in
03:46 40.9 °F 37.9 °F 30.15 in Calm     89 % 0.00 in
03:51 41.0 °F 38.0 °F 30.15 in Calm     89 % 0.00 in
03:56 41.1 °F 38.1 °F 30.15 in Calm     89 % 0.00 in
04:01 41.2 °F 38.2 °F 30.15 in Calm     89 % 0.00 in
04:06 41.0 °F 38.0 °F 30.15 in Calm     89 % 0.00 in
04:08 41.1 °F 38.1 °F 30.15 in Calm     89 % 0.00 in
04:13 41.0 °F 38.0 °F 30.14 in Calm     89 % 0.00 in
04:18 40.8 °F 37.8 °F 30.14 in Calm     89 % 0.00 in
04:23 40.4 °F 37.4 °F 30.14 in Calm     89 % 0.00 in
04:24 40.2 °F 37.2 °F 30.14 in Calm     89 % 0.00 in
04:29 39.8 °F 37.1 °F 30.14 in Calm     90 % 0.00 in
04:34 39.6 °F 36.9 °F 30.14 in Calm     90 % 0.00 in
04:39 39.3 °F 36.9 °F 30.14 in Calm     91 % 0.00 in
04:44 39.1 °F 36.7 °F 30.14 in Calm     91 % 0.00 in
04:49 39.0 °F 36.6 °F 30.14 in SE 1.0 mph   91 % 0.00 in
04:54 38.9 °F 36.5 °F 30.14 in Calm     91 % 0.00 in
04:59 38.7 °F 36.3 °F 30.14 in Calm     91 % 0.00 in
05:04 38.5 °F 36.1 °F 30.14 in Calm     91 % 0.00 in
05:09 38.5 °F 36.1 °F 30.14 in Calm     91 % 0.00 in
05:10 38.5 °F 36.1 °F 30.14 in Calm     91 % 0.00 in
05:15 38.5 °F 36.1 °F 30.15 in Calm     91 % 0.00 in
05:20 38.5 °F 36.1 °F 30.15 in Calm     91 % 0.00 in
05:26 38.6 °F 36.2 °F 30.15 in Calm   0.2 mph 91 % 0.00 in
05:31 38.6 °F 36.2 °F 30.15 in Calm     91 % 0.00 in
05:36 38.5 °F 36.1 °F 30.15 in ESE 1.2 mph   91 % 0.00 in
05:41 38.5 °F 36.1 °F 30.15 in Calm     91 % 0.00 in
05:46 38.6 °F 36.2 °F 30.15 in Calm     91 % 0.00 in
05:51 38.7 °F 36.3 °F 30.15 in Calm     91 % 0.00 in
05:56 38.7 °F 36.3 °F 30.16 in Calm     91 % 0.00 in
06:01 38.9 °F 36.5 °F 30.16 in Calm     91 % 0.00 in
06:06 39.0 °F 36.6 °F 30.16 in Calm     91 % 0.00 in
06:11 39.1 °F 36.7 °F 30.16 in Calm     91 % 0.00 in
06:16 39.1 °F 36.7 °F 30.16 in Calm     91 % 0.00 in
06:22 39.2 °F 36.8 °F 30.16 in Calm     91 % 0.00 in
06:27 39.1 °F 36.4 °F 30.16 in Calm     90 % 0.00 in
06:32 39.1 °F 36.4 °F 30.16 in Calm     90 % 0.00 in
06:37 39.1 °F 36.4 °F 30.16 in Calm     90 % 0.00 in
06:42 39.1 °F 36.4 °F 30.16 in Calm     90 % 0.00 in
06:47 39.0 °F 36.3 °F 30.16 in Calm     90 % 0.00 in
06:52 39.0 °F 36.3 °F 30.17 in Calm     90 % 0.00 in
06:57 38.9 °F 36.2 °F 30.17 in Calm     90 % 0.00 in
07:02 38.9 °F 36.2 °F 30.17 in Calm     90 % 0.00 in
07:07 38.9 °F 36.2 °F 30.17 in Calm     90 % 0.00 in
07:12 38.9 °F 36.2 °F 30.17 in Calm     90 % 0.00 in
07:17 39.1 °F 36.4 °F 30.18 in Calm     90 % 0.00 in
07:22 39.2 °F 36.2 °F 30.18 in Calm     89 % 0.00 in
07:27 39.4 °F 36.4 °F 30.18 in Calm     89 % 0.00 in
07:32 39.5 °F 36.5 °F 30.18 in Calm     89 % 0.00 in
07:37 39.7 °F 36.4 °F 30.18 in Calm     88 % 0.00 in
07:42 40.1 °F 36.8 °F 30.18 in Calm     88 % 0.00 in
07:47 40.6 °F 37.0 °F 30.18 in Calm     87 % 0.00 in
07:52 41.4 °F 37.8 °F 30.18 in SE 1.2 mph 1.2 mph 87 % 0.00 in
07:57 41.8 °F 37.6 °F 30.19 in Calm     85 % 0.00 in
08:02 41.9 °F 38.0 °F 30.18 in Calm     86 % 0.00 in
08:07 42.1 °F 38.2 °F 30.19 in SSE 2.3 mph   86 % 0.00 in
08:12 42.4 °F 38.2 °F 30.18 in SE 1.2 mph 1.2 mph 85 % 0.00 in
08:17 42.7 °F 38.2 °F 30.18 in SE 1.2 mph   84 % 0.00 in
08:22 42.9 °F 38.4 °F 30.18 in ESE 1.2 mph   84 % 0.00 in
08:27 43.0 °F 38.5 °F 30.18 in SE 2.3 mph 2.3 mph 84 % 0.00 in
08:32 43.0 °F 38.5 °F 30.18 in SW 1.2 mph   84 % 0.00 in
08:37 43.2 °F 38.4 °F 30.18 in SE 1.2 mph 1.2 mph 83 % 0.00 in
08:42 43.3 °F 38.5 °F 30.18 in Calm   0.1 mph 83 % 0.00 in
08:47 43.8 °F 39.0 °F 30.18 in Calm     83 % 0.00 in
08:52 44.5 °F 39.3 °F 30.18 in Calm     82 % 0.00 in
08:57 45.1 °F 39.3 °F 30.18 in Calm     80 % 0.00 in
09:02 45.6 °F 39.5 °F 30.18 in SE 2.3 mph 2.3 mph 79 % 0.00 in
09:07 46.3 °F 39.8 °F 30.18 in SE 2.3 mph 2.3 mph 78 % 0.00 in
09:12 47.1 °F 40.3 °F 30.18 in ESE 1.2 mph 1.2 mph 77 % 0.00 in
09:17 47.7 °F 40.2 °F 30.18 in South 2.3 mph 2.3 mph 75 % 0.00 in
09:22 48.4 °F 40.5 °F 30.18 in SSE 2.3 mph   74 % 0.00 in
09:27 48.8 °F 39.8 °F 30.18 in NW 1.2 mph 1.2 mph 71 % 0.00 in
09:32 49.3 °F 40.7 °F 30.18 in SSE 3.5 mph 3.5 mph 72 % 0.00 in
09:37 49.6 °F 40.2 °F 30.18 in South 3.5 mph 3.5 mph 70 % 0.00 in
09:42 49.2 °F 40.2 °F 30.18 in Calm     71 % 0.00 in
09:47 49.0 °F 40.4 °F 30.18 in Calm   0.2 mph 72 % 0.00 in
09:52 49.5 °F 40.8 °F 30.18 in SW 1.2 mph 1.2 mph 72 % 0.00 in
09:57 49.7 °F 41.0 °F 30.18 in SSW 1.2 mph   72 % 0.00 in
10:02 50.1 °F 40.7 °F 30.18 in ESE 4.6 mph 4.6 mph 70 % 0.00 in
10:08 50.5 °F 41.1 °F 30.17 in ENE 3.5 mph 3.5 mph 70 % 0.00 in
10:13 51.1 °F 41.7 °F 30.17 in South 1.2 mph 1.2 mph 70 % 0.00 in
10:18 51.8 °F 41.2 °F 30.17 in South 5.8 mph 5.8 mph 67 % 0.00 in
10:23 52.0 °F 41.8 °F 30.17 in SSW 2.3 mph 2.3 mph 68 % 0.00 in
10:28 52.4 °F 41.8 °F 30.17 in SSE 3.5 mph 3.5 mph 67 % 0.00 in
10:33 52.5 °F 41.9 °F 30.16 in ESE 4.0 mph 4.0 mph 67 % 0.00 in
10:38 52.8 °F 41.7 °F 30.16 in SE 2.3 mph 2.3 mph 66 % 0.00 in
10:43 53.3 °F 42.2 °F 30.16 in SSE 4.6 mph 4.6 mph 66 % 0.00 in
10:48 53.8 °F 42.3 °F 30.16 in NNW 2.3 mph 2.3 mph 65 % 0.00 in
10:53 53.4 °F 41.5 °F 30.16 in WSW 2.3 mph 2.3 mph 64 % 0.00 in
10:58 53.2 °F 42.1 °F 30.16 in SSW 2.3 mph 2.3 mph 66 % 0.00 in
11:03 53.6 °F 42.5 °F 30.15 in ESE 3.5 mph 3.5 mph 66 % 0.00 in
11:08 53.6 °F 41.7 °F 30.15 in NW 1.2 mph 1.2 mph 64 % 0.00 in
11:13 53.4 °F 41.5 °F 30.15 in NW 2.3 mph 2.3 mph 64 % 0.00 in
11:18 53.4 °F 41.9 °F 30.14 in SSW 1.2 mph 1.2 mph 65 % 0.00 in
11:23 53.6 °F 41.7 °F 30.14 in NW 3.5 mph 3.5 mph 64 % 0.00 in
11:28 53.3 °F 41.8 °F 30.14 in WSW 2.3 mph 2.3 mph 65 % 0.00 in
11:33 53.0 °F 41.5 °F 30.13 in NW 1.2 mph 1.2 mph 65 % 0.00 in
11:38 53.7 °F 42.2 °F 30.13 in WNW 2.3 mph 2.3 mph 65 % 0.00 in
11:43 53.9 °F 41.6 °F 30.13 in North 2.3 mph 2.3 mph 63 % 0.00 in
11:48 53.5 °F 41.2 °F 30.13 in NNW 1.2 mph 1.2 mph 63 % 0.00 in
11:53 53.7 °F 42.6 °F 30.13 in Calm     66 % 0.00 in
11:58 54.1 °F 42.2 °F 30.12 in NW 3.5 mph 3.5 mph 64 % 0.00 in
12:03 53.9 °F 41.6 °F 30.12 in NW 3.5 mph 3.5 mph 63 % 0.00 in
12:08 53.9 °F 41.6 °F 30.12 in WNW 2.3 mph 2.3 mph 63 % 0.00 in
12:13 53.9 °F 41.6 °F 30.12 in NW 2.3 mph 2.3 mph 63 % 0.00 in
12:18 53.9 °F 41.6 °F 30.12 in WNW 1.2 mph 1.2 mph 63 % 0.00 in
12:23 54.1 °F 41.4 °F 30.12 in WNW 2.3 mph 2.3 mph 62 % 0.00 in
12:28 54.4 °F 41.2 °F 30.12 in NNW 1.2 mph 1.2 mph 61 % 0.00 in
12:33 54.5 °F 41.3 °F 30.11 in NW 3.5 mph 3.5 mph 61 % 0.00 in
12:38 54.5 °F 41.3 °F 30.11 in NW 2.3 mph 2.3 mph 61 % 0.00 in
12:43 54.7 °F 41.5 °F 30.11 in NW 2.3 mph 2.3 mph 61 % 0.00 in
12:48 55.0 °F 41.4 °F 30.11 in NW 2.3 mph 2.3 mph 60 % 0.00 in
12:53 55.2 °F 41.1 °F 30.11 in WNW 1.2 mph 1.2 mph 59 % 0.00 in
12:58 55.0 °F 40.9 °F 30.11 in West 1.2 mph   59 % 0.00 in
13:03 55.4 °F 40.9 °F 30.11 in NW 2.3 mph 2.3 mph 58 % 0.00 in
13:08 55.5 °F 41.4 °F 30.11 in North 1.2 mph 1.2 mph 59 % 0.00 in
13:13 56.1 °F 41.5 °F 30.11 in NW 1.2 mph 1.2 mph 58 % 0.00 in
13:18 55.9 °F 41.3 °F 30.10 in NW 4.6 mph 4.6 mph 58 % 0.00 in
13:23 55.8 °F 41.2 °F 30.10 in WNW 2.3 mph 2.3 mph 58 % 0.00 in
13:28 55.9 °F 40.9 °F 30.10 in South 1.2 mph   57 % 0.00 in
13:33 56.2 °F 41.6 °F 30.09 in Calm   0.1 mph 58 % 0.00 in
13:39 56.5 °F 41.4 °F 30.09 in NW 3.5 mph 3.5 mph 57 % 0.00 in
13:44 56.2 °F 41.2 °F 30.09 in NW 1.2 mph 1.2 mph 57 % 0.00 in
13:49 56.4 °F 41.3 °F 30.09 in North 1.2 mph 1.2 mph 57 % 0.00 in
13:54 56.6 °F 41.1 °F 30.09 in Calm     56 % 0.00 in
13:59 56.7 °F 41.2 °F 30.09 in NW 3.5 mph 3.5 mph 56 % 0.00 in
14:04 56.5 °F 41.0 °F 30.09 in WSW 2.3 mph 2.3 mph 56 % 0.00 in
14:09 56.4 °F 40.9 °F 30.09 in NE 2.3 mph 2.3 mph 56 % 0.00 in
14:14 56.6 °F 41.1 °F 30.08 in NW 2.3 mph 2.3 mph 56 % 0.00 in
14:19 56.4 °F 40.9 °F 30.08 in NNW 3.5 mph 3.5 mph 56 % 0.00 in
14:24 56.5 °F 41.4 °F 30.08 in NW 2.3 mph 2.3 mph 57 % 0.00 in
14:34 56.7 °F 41.6 °F 30.09 in WNW 2.3 mph 2.3 mph 57 % 0.00 in
14:39 56.6 °F 41.1 °F 30.09 in NW 1.2 mph   56 % 0.00 in
14:44 56.5 °F 41.0 °F 30.09 in Calm     56 % 0.00 in
14:49 56.4 °F 41.3 °F 30.09 in NW 3.5 mph 3.5 mph 57 % 0.00 in
14:54 56.3 °F 41.3 °F 30.09 in NW 2.3 mph 2.3 mph 57 % 0.00 in
14:59 56.2 °F 41.2 °F 30.09 in NW 2.3 mph 2.3 mph 57 % 0.00 in
15:04 56.1 °F 41.1 °F 30.09 in NW 3.0 mph 3.0 mph 57 % 0.00 in
15:09 56.1 °F 41.5 °F 30.10 in NNW 2.3 mph 2.3 mph 58 % 0.00 in
15:14 56.1 °F 41.5 °F 30.10 in WSW 1.2 mph 1.2 mph 58 % 0.00 in
15:19 56.1 °F 41.5 °F 30.10 in NW 2.3 mph 2.3 mph 58 % 0.00 in
15:24 56.0 °F 41.0 °F 30.10 in North 3.5 mph 3.5 mph 57 % 0.00 in
15:29 55.9 °F 41.3 °F 30.10 in Calm     58 % 0.00 in
15:34 55.9 °F 40.9 °F 30.10 in NNW 2.0 mph 2.0 mph 57 % 0.00 in
15:39 56.0 °F 41.0 °F 30.10 in NW 3.5 mph 3.5 mph 57 % 0.00 in
15:49 55.8 °F 41.2 °F 30.10 in WNW 2.3 mph 2.3 mph 58 % 0.00 in
15:54 55.7 °F 41.1 °F 30.10 in NW 2.3 mph 2.3 mph 58 % 0.00 in
15:59 55.5 °F 41.0 °F 30.10 in NW 2.0 mph 2.0 mph 58 % 0.00 in
16:04 55.4 °F 40.4 °F 30.10 in NW 2.0 mph 2.0 mph 57 % 0.00 in
16:09 55.2 °F 40.7 °F 30.10 in North 2.3 mph 2.3 mph 58 % 0.00 in
16:14 55.0 °F 40.9 °F 30.10 in NW 1.2 mph 1.2 mph 59 % 0.00 in
16:19 54.6 °F 40.6 °F 30.10 in Calm     59 % 0.00 in
16:24 54.3 °F 40.7 °F 30.11 in WNW 1.2 mph 1.2 mph 60 % 0.00 in
16:29 53.9 °F 40.8 °F 30.11 in WNW 1.0 mph 1.0 mph 61 % 0.00 in
16:34 53.6 °F 40.5 °F 30.11 in NW 1.2 mph   61 % 0.00 in
16:39 53.5 °F 40.4 °F 30.11 in Calm     61 % 0.00 in
16:44 53.2 °F 40.5 °F 30.11 in Calm     62 % 0.00 in
16:49 52.7 °F 40.5 °F 30.11 in Calm     63 % 0.00 in
16:54 52.4 °F 40.2 °F 30.11 in Calm     63 % 0.00 in
16:59 52.0 °F 40.2 °F 30.11 in Calm     64 % 0.00 in
17:04 51.4 °F 40.4 °F 30.11 in Calm     66 % 0.00 in
17:09 50.7 °F 40.1 °F 30.11 in Calm     67 % 0.00 in
17:14 50.1 °F 39.9 °F 30.11 in Calm     68 % 0.00 in
17:19 49.7 °F 39.9 °F 30.11 in Calm     69 % 0.00 in
17:24 49.6 °F 40.2 °F 30.11 in Calm     70 % 0.00 in
17:29 49.3 °F 40.3 °F 30.12 in Calm     71 % 0.00 in
17:34 48.9 °F 40.3 °F 30.12 in Calm     72 % 0.00 in
17:39 48.3 °F 40.0 °F 30.12 in Calm     73 % 0.00 in
17:44 47.9 °F 40.0 °F 30.12 in Calm     74 % 0.00 in
17:49 47.4 °F 39.5 °F 30.12 in Calm     74 % 0.00 in
17:54 47.0 °F 40.2 °F 30.12 in Calm     77 % 0.00 in
17:59 46.7 °F 40.2 °F 30.12 in Calm     78 % 0.00 in
18:04 46.4 °F 40.2 °F 30.12 in Calm     79 % 0.00 in
18:09 46.1 °F 39.9 °F 30.12 in Calm     79 % 0.00 in
18:14 45.8 °F 39.7 °F 30.12 in Calm     79 % 0.00 in
18:19 45.5 °F 40.0 °F 30.13 in Calm     81 % 0.00 in
18:23 45.2 °F 39.7 °F 30.13 in Calm     81 % 0.00 in
18:28 44.9 °F 39.7 °F 30.13 in Calm     82 % 0.00 in
18:33 44.8 °F 39.3 °F 30.13 in Calm     81 % 0.00 in
18:38 44.5 °F 39.7 °F 30.13 in Calm     83 % 0.00 in
18:43 44.3 °F 39.8 °F 30.14 in Calm     84 % 0.00 in
18:48 44.1 °F 39.6 °F 30.14 in Calm     84 % 0.00 in
18:53 43.8 °F 39.3 °F 30.14 in Calm     84 % 0.00 in
18:59 43.8 °F 39.6 °F 30.14 in Calm     85 % 0.00 in
19:04 43.9 °F 39.4 °F 30.15 in Calm     84 % 0.00 in
19:09 43.9 °F 39.7 °F 30.15 in Calm     85 % 0.00 in
19:14 43.8 °F 39.6 °F 30.15 in Calm     85 % 0.00 in
19:19 43.9 °F 39.4 °F 30.15 in Calm     84 % 0.00 in
19:22 44.3 °F 39.8 °F 30.15 in Calm     84 % 0.00 in
19:27 44.3 °F 39.5 °F 30.15 in Calm     83 % 0.00 in
19:32 44.0 °F 39.2 °F 30.15 in Calm     83 % 0.00 in
19:37 43.9 °F 39.4 °F 30.15 in Calm     84 % 0.00 in
19:43 43.8 °F 39.3 °F 30.15 in Calm     84 % 0.00 in
19:48 43.5 °F 39.3 °F 30.15 in Calm     85 % 0.00 in
19:53 43.2 °F 39.0 °F 30.15 in Calm     85 % 0.00 in
19:58 42.7 °F 38.5 °F 30.15 in Calm     85 % 0.00 in
20:03 42.7 °F 38.8 °F 30.15 in Calm     86 % 0.00 in
20:08 42.5 °F 38.6 °F 30.16 in Calm     86 % 0.00 in
20:13 42.3 °F 38.7 °F 30.16 in Calm     87 % 0.00 in
20:18 42.2 °F 38.6 °F 30.16 in Calm     87 % 0.00 in
20:26 42.3 °F 38.4 °F 30.16 in Calm     86 % 0.00 in
20:31 42.2 °F 38.6 °F 30.17 in Calm     87 % 0.00 in
20:36 42.0 °F 38.4 °F 30.17 in Calm     87 % 0.00 in
20:41 41.9 °F 38.3 °F 30.17 in Calm     87 % 0.00 in
20:46 41.6 °F 38.0 °F 30.16 in Calm     87 % 0.00 in
20:51 41.5 °F 37.9 °F 30.17 in SE 1.2 mph   87 % 0.00 in
20:56 41.0 °F 37.1 °F 30.17 in Calm     86 % 0.00 in
21:01 40.8 °F 37.2 °F 30.17 in Calm     87 % 0.00 in
21:06 40.6 °F 37.0 °F 30.18 in East 1.2 mph 1.2 mph 87 % 0.00 in
21:12 40.5 °F 36.9 °F 30.18 in East 1.2 mph   87 % 0.00 in
21:17 40.4 °F 37.1 °F 30.18 in Calm     88 % 0.00 in
21:22 40.1 °F 36.8 °F 30.18 in Calm     88 % 0.00 in
21:27 39.9 °F 36.6 °F 30.18 in Calm     88 % 0.00 in
21:32 39.6 °F 36.3 °F 30.18 in Calm     88 % 0.00 in
21:37 39.6 °F 36.6 °F 30.18 in Calm     89 % 0.00 in
21:42 39.5 °F 36.5 °F 30.19 in Calm     89 % 0.00 in
21:47 39.5 °F 36.5 °F 30.18 in Calm     89 % 0.00 in
21:52 39.4 °F 36.4 °F 30.18 in Calm     89 % 0.00 in
21:57 39.3 °F 36.3 °F 30.18 in Calm     89 % 0.00 in
22:02 39.2 °F 36.2 °F 30.18 in Calm     89 % 0.00 in
22:07 39.3 °F 36.6 °F 30.18 in Calm     90 % 0.00 in
22:12 39.6 °F 36.9 °F 30.19 in Calm     90 % 0.00 in
22:17 39.8 °F 36.8 °F 30.18 in Calm     89 % 0.00 in
22:22 40.0 °F 37.0 °F 30.18 in Calm     89 % 0.00 in
22:27 39.9 °F 36.6 °F 30.18 in Calm     88 % 0.00 in
22:32 39.8 °F 36.5 °F 30.18 in Calm     88 % 0.00 in
22:37 39.8 °F 36.5 °F 30.18 in Calm     88 % 0.00 in
22:42 39.5 °F 36.2 °F 30.18 in Calm     88 % 0.00 in
22:48 39.0 °F 36.0 °F 30.19 in Calm     89 % 0.00 in
22:53 38.7 °F 35.7 °F 30.19 in Calm     89 % 0.00 in
22:58 38.3 °F 35.6 °F 30.19 in Calm     90 % 0.00 in
23:03 38.2 °F 35.5 °F 30.19 in Calm     90 % 0.00 in
23:08 38.0 °F 35.3 °F 30.20 in Calm     90 % 0.00 in
23:13 37.9 °F 35.5 °F 30.20 in Calm     91 % 0.00 in
23:18 37.9 °F 35.5 °F 30.20 in Calm     91 % 0.00 in
23:23 37.8 °F 35.4 °F 30.21 in Calm     91 % 0.00 in
23:28 37.6 °F 35.2 °F 30.20 in Calm     91 % 0.00 in
23:33 37.5 °F 35.1 °F 30.21 in Calm     91 % 0.00 in
23:38 37.3 °F 34.9 °F 30.21 in Calm     91 % 0.00 in
23:43 37.2 °F 34.8 °F 30.21 in Calm     91 % 0.00 in
23:48 37.1 °F 34.7 °F 30.22 in Calm     91 % 0.00 in
23:53 37.0 °F 34.6 °F 30.22 in Calm     91 % 0.00 in
23:54 36.9 °F 34.5 °F 30.22 in Calm     91 % 0.00 in
Park Place, Exeter, Tulare County, California, USA
Compliments of Weather Underground - 2.75 mb